Aérodrome :
LOGIN :

S'inscrire | Disclaimer

   EN    FR    IT 

 










Légende :    VFR   VFR Marginal   IFR   IFR Intensif   IFR Très Intensif
Visi : 
Plafond : 
>= 8 km
>= 3000ft
5 à 8 km
1000 à 3000 ft
1500m à 5 km
500 à 1000 ft
800 à 1500m
200 à 500 ft
< 800m
< 200 ft
Symboles :   Orages  Brouillard  Fortes neiges  Fortes précipitations  Vent > 20 kt
SIGMETs :   Divers  Orages  Givrage  Turbulence  Onde Orograph.  Cendres Volcan.






- Altitude de l'aérodrome : 1090 ft
- Code IATA : CFE


LFLC - Clermont-Ferrand Auvergne

DERNIER METAR :
  • 101800Z AUTO 17016KT 9999 FEW056 BKN230 14/05 Q1010 TEMPO BKN070CB

METARs EXPIRÉS :
  • 101730Z AUTO 17016KT CAVOK 14/06 Q1010 TEMPO BKN070CB
  • 101700Z AUTO 17014KT 9999 FEW060 SCT100 15/05 Q1010 TEMPO 18015G25KT BKN070CB
  • 101630Z AUTO 17015KT 9999 FEW060 OVC070 15/06 Q1010 TEMPO 18015G25KT BKN070CB
  • 101600Z AUTO 17014KT 9999 FEW058 BKN070 16/06 Q1010 TEMPO 18015G25KT BKN070CB

TAF TAF LFLC
Valide du 10 à 18h jusqu'au 11 à 18h UTC


101700Z 1018/1118 18010KT CAVOK
TEMPO 1018/1022 18020KT
PROB30
TEMPO 1018/1020 -SHRA BKN070CB
PROB30
TEMPO 1103/1109 -SHRA BKN070TCU
FM110900 VRB05KT 9999 -RA BKN040 OVC060
TEMPO 1109/1114 18010KT 4000 RA
FM111400 34008KT 9999 BKN030
ATIS : +33 4 73 62 74 38



MET'MAP, la Météo Aéronautique d'un coup d'oeil ! - Copyright ORBIFLY Décembre 2007 - Disclaimer

ORBIFLY MET'MAP TEAM :

Programmation & Développement : Alexandra Zaïnal
Sur une idée originale de : Baudouin d'Aumeries
Assistance à la programmation : Marc-Olivier Méhu
Soutien technique & logistique : Manuel Goepfert

Contact : metmap@orbifly.com




SOURCES & CREDITS :

   NOAA